createdAt,value
2023-04-04T00:00:07.985Z,75.32
2023-04-04T00:01:07.950Z,75.22
2023-04-04T00:02:07.967Z,75.43
2023-04-04T00:03:08.017Z,75.43
2023-04-04T00:04:08.009Z,75.53
2023-04-04T00:05:07.938Z,75.32
2023-04-04T00:06:07.910Z,75.22
2023-04-04T00:07:07.882Z,75.26
2023-04-04T00:08:07.892Z,75.32
2023-04-04T00:09:07.850Z,75.46
2023-04-04T00:10:07.868Z,75.53
2023-04-04T00:11:07.824Z,75.53
2023-04-04T00:12:07.811Z,75.53
2023-04-04T00:13:07.814Z,75.67
2023-04-04T00:14:07.805Z,75.67
2023-04-04T00:15:07.787Z,75.78
2023-04-04T00:16:07.793Z,75.78
2023-04-04T00:17:07.756Z,75.88
2023-04-04T00:18:07.839Z,75.98
2023-04-04T00:19:07.733Z,75.98
2023-04-04T00:20:07.787Z,76.09
2023-04-04T00:21:07.695Z,76.20
2023-04-04T00:22:07.695Z,76.30
2023-04-04T00:23:07.673Z,76.40
2023-04-04T00:24:07.674Z,76.40
2023-04-04T00:25:07.678Z,76.40
2023-04-04T00:26:07.670Z,76.30
2023-04-04T00:27:07.621Z,76.30
2023-04-04T00:28:07.624Z,76.51
2023-04-04T00:29:07.602Z,76.51
2023-04-04T00:30:07.668Z,76.61
2023-04-04T00:31:07.609Z,76.51
2023-04-04T00:32:07.610Z,76.51
2023-04-04T00:33:07.627Z,76.61
2023-04-04T00:34:07.556Z,76.72
2023-04-04T00:35:07.566Z,76.61
2023-04-04T00:36:07.553Z,76.72
2023-04-04T00:37:07.581Z,76.72
2023-04-04T00:38:07.525Z,76.86
2023-04-04T00:39:07.482Z,76.96
2023-04-04T00:40:07.488Z,77.06
2023-04-04T00:41:07.449Z,76.92
2023-04-04T00:42:07.458Z,76.96
2023-04-04T00:43:07.432Z,77.06
2023-04-04T00:44:07.436Z,77.06
2023-04-04T00:45:07.437Z,77.27
2023-04-04T00:46:07.468Z,77.38
2023-04-04T00:47:07.374Z,77.38
2023-04-04T00:48:07.406Z,77.48
2023-04-04T00:49:07.355Z,77.48
2023-04-04T00:50:07.368Z,77.59
2023-04-04T00:51:07.355Z,77.59
2023-04-04T00:52:07.630Z,77.48
2023-04-04T00:53:07.405Z,77.59
2023-04-04T00:54:07.327Z,77.48
2023-04-04T00:55:07.293Z,77.59
2023-04-04T00:56:07.283Z,77.69
2023-04-04T00:57:07.331Z,77.69
2023-04-04T00:58:07.256Z,77.59
2023-04-04T00:59:07.262Z,77.69
2023-04-04T01:00:07.222Z,77.69
2023-04-04T01:01:07.797Z,77.80
2023-04-04T01:02:07.209Z,77.90
2023-04-04T01:03:07.268Z,77.90
2023-04-04T01:04:07.237Z,77.80
2023-04-04T01:05:07.152Z,77.80
2023-04-04T01:06:07.148Z,78.00
2023-04-04T01:07:07.149Z,78.00
2023-04-04T01:08:07.109Z,78.00
2023-04-04T01:09:07.102Z,78.11
2023-04-04T01:10:07.092Z,78.00
2023-04-04T01:11:07.081Z,78.11
2023-04-04T01:12:07.066Z,78.11
2023-04-04T01:13:07.051Z,78.00
2023-04-04T01:14:07.041Z,78.21
2023-04-04T01:15:07.024Z,78.32
2023-04-04T01:16:07.105Z,78.42
2023-04-04T01:17:07.000Z,78.42
2023-04-04T01:18:07.037Z,78.32
2023-04-04T01:19:06.973Z,78.53
2023-04-04T01:20:06.992Z,78.63
2023-04-04T01:21:06.975Z,78.53
2023-04-04T01:22:06.938Z,78.42
2023-04-04T01:23:13.952Z,78.42
2023-04-04T01:24:08.617Z,78.53
2023-04-04T01:25:06.916Z,78.63
2023-04-04T01:26:06.923Z,78.74
2023-04-04T01:27:06.894Z,78.84
2023-04-04T01:28:06.903Z,78.74
2023-04-04T01:29:06.865Z,78.84
2023-04-04T01:30:06.873Z,78.74
2023-04-04T01:31:06.898Z,78.84
2023-04-04T01:32:06.865Z,78.84
2023-04-04T01:33:06.841Z,78.74
2023-04-04T01:34:06.885Z,78.42
2023-04-04T01:35:06.807Z,78.63
2023-04-04T01:36:06.823Z,78.77
2023-04-04T01:37:06.844Z,78.98
2023-04-04T01:38:06.766Z,79.08
2023-04-04T01:39:06.761Z,79.36
2023-04-04T01:40:06.748Z,79.26
2023-04-04T01:41:06.735Z,79.15
2023-04-04T01:42:06.718Z,79.19
2023-04-04T01:43:06.676Z,79.19
2023-04-04T01:44:06.679Z,79.19
2023-04-04T01:45:06.661Z,79.19
2023-04-04T01:46:06.730Z,79.19
2023-04-04T01:47:06.653Z,79.40
2023-04-04T01:48:06.668Z,79.40
2023-04-04T01:49:07.501Z,79.50
2023-04-04T01:50:06.598Z,79.61
2023-04-04T01:51:06.603Z,79.61
2023-04-04T01:52:06.579Z,79.71
2023-04-04T01:53:06.556Z,79.82
2023-04-04T01:54:06.551Z,79.92
2023-04-04T01:55:06.519Z,79.82
2023-04-04T01:56:06.561Z,80.13
2023-04-04T01:57:06.500Z,79.71
2023-04-04T01:58:06.515Z,79.50
2023-04-04T01:59:06.501Z,79.61
2023-04-04T02:00:06.472Z,79.92
2023-04-04T02:01:06.470Z,79.92
2023-04-04T02:02:06.448Z,79.82
2023-04-04T02:03:06.509Z,79.92
2023-04-04T02:04:06.664Z,80.13
2023-04-04T02:05:06.397Z,80.48
2023-04-04T02:06:06.736Z,80.48
2023-04-04T02:07:06.399Z,80.79
2023-04-04T02:08:06.521Z,80.48
2023-04-04T02:09:06.380Z,80.48
2023-04-04T02:10:06.375Z,80.58
2023-04-04T02:11:06.373Z,80.76
2023-04-04T02:12:06.348Z,80.65
2023-04-04T02:13:06.327Z,80.44
2023-04-04T02:14:06.343Z,80.44
2023-04-04T02:15:06.392Z,80.44
2023-04-04T02:16:06.367Z,80.24
2023-04-04T02:17:06.265Z,80.06
2023-04-04T02:18:06.355Z,80.27
2023-04-04T02:19:06.236Z,80.55
2023-04-04T02:20:06.240Z,80.34
2023-04-04T02:21:06.206Z,80.13
2023-04-04T02:22:06.216Z,80.24
2023-04-04T02:23:06.197Z,80.13
2023-04-04T02:24:06.195Z,80.02
2023-04-04T02:25:06.147Z,79.92
2023-04-04T02:26:06.201Z,79.82
2023-04-04T02:27:06.123Z,79.85
2023-04-04T02:28:06.127Z,79.92
2023-04-04T02:29:06.096Z,80.06
2023-04-04T02:30:06.120Z,80.24
2023-04-04T02:31:06.092Z,80.24
2023-04-04T02:32:06.071Z,80.44
2023-04-04T02:33:06.086Z,80.69
2023-04-04T02:34:06.066Z,80.79
2023-04-04T02:35:06.063Z,80.38
2023-04-04T02:36:06.190Z,80.38
2023-04-04T02:37:06.021Z,80.79
2023-04-04T02:38:06.064Z,81.00
2023-04-04T02:39:05.974Z,80.90
2023-04-04T02:40:05.955Z,80.79
2023-04-04T02:41:05.964Z,80.90
2023-04-04T02:42:05.939Z,81.11
2023-04-04T02:43:05.934Z,81.32
2023-04-04T02:44:06.003Z,81.32
2023-04-04T02:45:05.917Z,81.21
2023-04-04T02:46:18.436Z,81.42
2023-04-04T02:47:06.948Z,81.63
2023-04-04T02:48:06.652Z,81.42
2023-04-04T02:49:05.870Z,81.63
2023-04-04T02:50:05.851Z,81.87
2023-04-04T02:51:05.860Z,81.98
2023-04-04T02:52:05.871Z,82.15
2023-04-04T02:53:05.829Z,81.98
2023-04-04T02:54:05.797Z,82.09
2023-04-04T02:55:05.815Z,82.19
2023-04-04T02:56:05.812Z,82.29
2023-04-04T02:57:05.933Z,82.19
2023-04-04T02:58:06.331Z,82.29
2023-04-04T02:59:05.791Z,82.19
2023-04-04T03:00:05.726Z,82.19
2023-04-04T03:01:05.781Z,82.09
2023-04-04T03:02:05.754Z,82.09
2023-04-04T03:03:05.907Z,82.29
2023-04-04T03:04:05.837Z,82.19
2023-04-04T03:05:05.670Z,82.29
2023-04-04T03:06:05.668Z,82.05
2023-04-04T03:07:05.630Z,81.87
2023-04-04T03:08:05.699Z,81.98
2023-04-04T03:09:05.641Z,81.98
2023-04-04T03:10:05.656Z,82.19
2023-04-04T03:11:05.579Z,82.19
2023-04-04T03:12:05.547Z,82.29
2023-04-04T03:13:05.555Z,82.29
2023-04-04T03:14:05.532Z,82.40
2023-04-04T03:15:05.536Z,82.50
2023-04-04T03:16:05.576Z,82.50
2023-04-04T03:17:05.511Z,82.50
2023-04-04T03:18:05.577Z,82.60
2023-04-04T03:19:06.401Z,82.71
2023-04-04T03:20:05.456Z,82.60
2023-04-04T03:21:05.463Z,82.40
2023-04-04T03:22:05.441Z,82.40
2023-04-04T03:23:05.427Z,82.50
2023-04-04T03:24:05.488Z,82.50
2023-04-04T03:25:05.400Z,82.50
2023-04-04T03:26:05.464Z,82.50
2023-04-04T03:27:05.378Z,82.92
2023-04-04T03:28:05.372Z,83.03
2023-04-04T03:29:05.375Z,82.92
2023-04-04T03:30:05.368Z,82.96
2023-04-04T03:31:05.375Z,82.86
2023-04-04T03:32:05.331Z,82.86
2023-04-04T03:33:05.324Z,83.17
2023-04-04T03:34:05.277Z,83.06
2023-04-04T03:35:05.294Z,82.96
2023-04-04T03:36:05.336Z,83.06
2023-04-04T03:37:05.258Z,82.86
2023-04-04T03:38:05.240Z,82.96
2023-04-04T03:39:05.216Z,83.06
2023-04-04T03:40:05.192Z,82.96
2023-04-04T03:41:05.241Z,83.06
2023-04-04T03:42:05.221Z,83.17
2023-04-04T03:43:05.166Z,83.48
2023-04-04T03:44:05.175Z,83.48
2023-04-04T03:45:05.186Z,83.38
2023-04-04T03:46:05.200Z,83.38
2023-04-04T03:47:05.177Z,83.27
2023-04-04T03:48:05.106Z,83.27
2023-04-04T03:49:05.097Z,83.48
2023-04-04T03:50:05.076Z,83.59
2023-04-04T03:51:05.088Z,83.80
2023-04-04T03:52:05.087Z,83.80
2023-04-04T03:53:05.066Z,84.00
2023-04-04T03:54:05.055Z,84.11
2023-04-04T03:55:05.014Z,84.11
2023-04-04T03:56:05.015Z,84.11
2023-04-04T03:57:05.021Z,84.15
2023-04-04T03:58:05.024Z,84.25
2023-04-04T03:59:05.066Z,84.46
2023-04-04T04:00:04.986Z,84.42
2023-04-04T04:01:04.949Z,84.56
2023-04-04T04:02:04.949Z,84.46
2023-04-04T04:03:05.032Z,84.74
2023-04-04T04:04:04.973Z,84.63
2023-04-04T04:05:04.891Z,84.63
2023-04-04T04:06:04.894Z,84.63
2023-04-04T04:07:04.884Z,84.32
2023-04-04T04:08:04.864Z,84.36
2023-04-04T04:09:04.868Z,84.74
2023-04-04T04:10:04.848Z,84.42
2023-04-04T04:11:04.836Z,84.36
2023-04-04T04:12:04.842Z,84.46
2023-04-04T04:13:04.910Z,84.78
2023-04-04T04:14:04.747Z,84.88
2023-04-04T04:15:04.754Z,84.88
2023-04-04T04:16:04.834Z,84.88
2023-04-04T04:17:04.728Z,84.99
2023-04-04T04:18:04.745Z,85.09
2023-04-04T04:19:04.701Z,85.09
2023-04-04T04:20:04.673Z,84.99
2023-04-04T04:21:04.687Z,84.99
2023-04-04T04:22:04.660Z,84.99
2023-04-04T04:23:04.646Z,85.19
2023-04-04T04:24:04.624Z,84.78
2023-04-04T04:25:04.619Z,84.78
2023-04-04T04:26:04.642Z,85.09
2023-04-04T04:27:04.636Z,84.99
2023-04-04T04:28:04.596Z,85.19
2023-04-04T04:29:04.600Z,84.99
2023-04-04T04:30:04.594Z,84.67
2023-04-04T04:31:04.637Z,84.67
2023-04-04T04:32:04.535Z,84.88
2023-04-04T04:33:04.582Z,84.84
2023-04-04T04:34:04.519Z,84.84
2023-04-04T04:35:04.513Z,84.74
2023-04-04T04:36:04.555Z,84.74
2023-04-04T04:37:04.487Z,84.53
2023-04-04T04:38:04.472Z,84.42
2023-04-04T04:39:04.462Z,84.46
2023-04-04T04:40:04.462Z,84.78
2023-04-04T04:41:04.426Z,85.05
2023-04-04T04:42:04.437Z,84.84
2023-04-04T04:43:04.418Z,85.05
2023-04-04T04:44:04.424Z,84.63
2023-04-04T04:45:04.385Z,84.42
2023-04-04T04:46:04.375Z,84.56
2023-04-04T04:47:04.404Z,84.88
2023-04-04T04:48:04.355Z,84.84
2023-04-04T04:49:04.337Z,84.63
2023-04-04T04:50:04.301Z,84.78
2023-04-04T04:51:04.304Z,84.74
2023-04-04T04:52:04.328Z,84.56
2023-04-04T04:53:04.290Z,84.56
2023-04-04T04:54:04.253Z,84.56
2023-04-04T04:55:04.300Z,84.67
2023-04-04T04:56:04.284Z,84.78
2023-04-04T04:57:04.290Z,84.78
2023-04-04T04:58:04.244Z,84.88
2023-04-04T04:59:04.291Z,84.88
2023-04-04T05:00:04.190Z,84.99
2023-04-04T05:01:04.228Z,84.88
2023-04-04T05:02:04.202Z,84.67
2023-04-04T05:03:04.161Z,84.67
2023-04-04T05:04:04.155Z,84.88
2023-04-04T05:05:04.136Z,85.05
2023-04-04T05:06:04.111Z,84.78
2023-04-04T05:07:04.133Z,84.67
2023-04-04T05:08:04.087Z,84.88
2023-04-04T05:09:04.071Z,84.99
2023-04-04T05:10:04.074Z,84.84
2023-04-04T05:11:05.562Z,84.74
2023-04-04T05:12:04.023Z,84.74
2023-04-04T05:13:04.055Z,86.72
2023-04-04T05:14:04.028Z,85.43
2023-04-04T05:15:04.003Z,85.60
2023-04-04T05:16:04.043Z,86.08
2023-04-04T05:17:04.011Z,85.59
2023-04-04T05:18:04.012Z,83.36
2023-04-04T05:19:03.992Z,82.17
2023-04-04T05:20:03.995Z,80.33
2023-04-04T05:21:03.951Z,79.81
2023-04-04T05:22:03.916Z,80.85
2023-04-04T05:23:03.935Z,79.85
2023-04-04T05:24:03.870Z,80.09
2023-04-04T05:25:03.884Z,80.30
2023-04-04T05:26:03.847Z,80.96
2023-04-04T05:27:03.859Z,81.38
2023-04-04T05:28:03.850Z,81.73
2023-04-04T05:29:03.823Z,81.95
2023-04-04T05:30:03.810Z,82.15
2023-04-04T05:31:03.792Z,83.09
2023-04-04T05:32:03.887Z,82.99
2023-04-04T05:33:03.803Z,82.46
2023-04-04T05:34:03.757Z,82.46
2023-04-04T05:35:03.860Z,82.99
2023-04-04T05:36:03.785Z,83.83
2023-04-04T05:37:03.740Z,84.48
2023-04-04T05:38:03.710Z,82.18
2023-04-04T05:39:03.693Z,81.13
2023-04-04T05:40:03.691Z,80.96
2023-04-04T05:41:03.685Z,81.18
2023-04-04T05:42:03.683Z,81.28
2023-04-04T05:43:03.679Z,81.52
2023-04-04T05:44:03.653Z,81.84
2023-04-04T05:45:03.657Z,81.84
2023-04-04T05:46:03.643Z,82.26
2023-04-04T05:47:03.628Z,82.22
2023-04-04T05:48:03.642Z,82.12
2023-04-04T05:49:03.559Z,82.22
2023-04-04T05:50:03.559Z,82.12
2023-04-04T05:51:03.562Z,81.70
2023-04-04T05:52:03.514Z,81.38
2023-04-04T05:53:03.524Z,81.38
2023-04-04T05:54:03.507Z,81.49
2023-04-04T05:55:03.513Z,81.59
2023-04-04T05:56:03.483Z,81.73
2023-04-04T05:57:03.489Z,81.95
2023-04-04T05:58:03.485Z,82.05
2023-04-04T05:59:03.494Z,82.15
2023-04-04T06:00:03.428Z,82.12
2023-04-04T06:01:03.416Z,82.22
2023-04-04T06:02:03.422Z,82.32
2023-04-04T06:03:03.460Z,82.12
2023-04-04T06:04:03.377Z,81.80
2023-04-04T06:05:03.404Z,81.90
2023-04-04T06:06:03.356Z,82.12
2023-04-04T06:07:03.357Z,81.70
2023-04-04T06:08:03.352Z,81.76
2023-04-04T06:09:03.344Z,81.35
2023-04-04T06:10:03.297Z,81.03
2023-04-04T06:11:03.330Z,80.72
2023-04-04T06:12:03.319Z,80.82
2023-04-04T06:13:03.266Z,80.82
2023-04-04T06:14:03.246Z,81.03
2023-04-04T06:15:03.244Z,80.62
2023-04-04T06:16:03.273Z,80.41
2023-04-04T06:17:03.265Z,80.30
2023-04-04T06:18:03.245Z,80.09
2023-04-04T06:19:03.208Z,80.30
2023-04-04T06:20:03.217Z,80.51
2023-04-04T06:21:03.196Z,80.16
2023-04-04T06:22:03.206Z,79.85
2023-04-04T06:23:03.208Z,79.53
2023-04-04T06:24:03.205Z,79.11
2023-04-04T06:25:03.235Z,79.01
2023-04-04T06:26:03.106Z,78.91
2023-04-04T06:27:03.150Z,78.70
2023-04-04T06:28:03.078Z,78.39
2023-04-04T06:29:03.100Z,78.70
2023-04-04T06:30:03.067Z,78.80
2023-04-04T06:31:03.103Z,79.22
2023-04-04T06:32:03.053Z,79.22
2023-04-04T06:33:03.120Z,79.01
2023-04-04T06:34:03.022Z,78.97
2023-04-04T06:35:03.023Z,78.25
2023-04-04T06:36:03.023Z,78.25
2023-04-04T06:37:03.028Z,78.04
2023-04-04T06:38:02.963Z,77.83
2023-04-04T06:39:02.956Z,77.72
2023-04-04T06:40:02.976Z,77.37
2023-04-04T06:41:03.035Z,77.06
2023-04-04T06:42:02.956Z,76.75
2023-04-04T06:43:02.904Z,76.54
2023-04-04T06:44:02.884Z,76.65
2023-04-04T06:45:02.876Z,76.43
2023-04-04T06:46:02.946Z,76.12
2023-04-04T06:47:02.921Z,76.65
2023-04-04T06:48:02.890Z,76.33
2023-04-04T06:49:02.835Z,76.54
2023-04-04T06:50:03.076Z,76.65
2023-04-04T06:51:02.791Z,76.75
2023-04-04T06:52:02.849Z,76.72
2023-04-04T06:53:02.779Z,75.98
2023-04-04T06:54:02.732Z,75.57
2023-04-04T06:55:03.040Z,75.15
2023-04-04T06:56:02.953Z,75.05
2023-04-04T06:57:02.741Z,75.05
2023-04-04T06:58:02.699Z,75.15
2023-04-04T06:59:02.738Z,75.26
2023-04-04T07:00:02.720Z,75.26
2023-04-04T07:01:02.716Z,74.95
2023-04-04T07:02:02.735Z,74.63
2023-04-04T07:03:02.907Z,74.60
2023-04-04T07:04:02.617Z,74.39
2023-04-04T07:05:02.629Z,74.39
2023-04-04T07:06:02.662Z,74.35
2023-04-04T07:07:02.617Z,74.15
2023-04-04T07:08:02.621Z,73.94
2023-04-04T07:09:02.632Z,73.73
2023-04-04T07:10:02.582Z,73.42
2023-04-04T07:11:02.606Z,73.63
2023-04-04T07:12:02.604Z,73.83
2023-04-04T07:13:02.592Z,73.73
2023-04-04T07:14:02.525Z,73.32
2023-04-04T07:15:02.548Z,73.10
2023-04-04T07:16:02.553Z,72.89
2023-04-04T07:17:10.669Z,73.32
2023-04-04T07:18:03.626Z,73.42
2023-04-04T07:19:02.471Z,73.63
2023-04-04T07:20:04.650Z,73.63
2023-04-04T07:21:02.450Z,73.73
2023-04-04T07:22:02.443Z,73.49
2023-04-04T07:23:11.736Z,73.07
2023-04-04T07:24:02.375Z,72.48
2023-04-04T07:25:04.032Z,73.14
2023-04-04T07:26:02.357Z,73.73
2023-04-04T07:27:02.356Z,73.42
2023-04-04T07:28:11.762Z,73.21
2023-04-04T07:29:03.298Z,73.21
2023-04-04T07:30:02.303Z,72.97
2023-04-04T07:31:02.330Z,72.86
2023-04-04T07:32:02.345Z,72.55
2023-04-04T07:33:02.295Z,72.55
2023-04-04T07:34:02.265Z,71.92
2023-04-04T07:35:02.282Z,72.00
2023-04-04T07:36:02.253Z,71.79
2023-04-04T07:37:02.219Z,71.48
2023-04-04T07:38:02.214Z,71.37
2023-04-04T07:39:02.185Z,71.06
2023-04-04T07:40:02.191Z,71.06
2023-04-04T07:41:04.096Z,70.85
2023-04-04T07:42:02.175Z,71.06
2023-04-04T07:43:02.202Z,71.27
2023-04-04T07:44:02.109Z,71.23
2023-04-04T07:45:02.143Z,70.92
2023-04-04T07:46:02.160Z,70.92
2023-04-04T07:47:09.182Z,70.27
2023-04-04T07:48:03.287Z,70.27
2023-04-04T07:49:02.094Z,69.64
2023-04-04T07:50:02.096Z,69.85
2023-04-04T07:51:02.073Z,69.64
2023-04-04T07:52:02.025Z,69.43
2023-04-04T07:53:02.107Z,69.33
2023-04-04T07:54:01.980Z,69.23
2023-04-04T07:55:01.972Z,68.99
2023-04-04T07:56:01.958Z,68.91
2023-04-04T07:57:01.987Z,68.40
2023-04-04T07:58:01.941Z,68.29
2023-04-04T07:59:01.985Z,68.26
2023-04-04T08:00:01.923Z,68.05
2023-04-04T08:01:01.879Z,67.64
2023-04-04T08:02:02.051Z,67.74
2023-04-04T08:03:02.122Z,67.54
2023-04-04T08:04:02.086Z,67.54
2023-04-04T08:05:01.833Z,67.54
2023-04-04T08:06:01.849Z,67.22
2023-04-04T08:07:01.809Z,66.71
2023-04-04T08:08:01.834Z,66.71
2023-04-04T08:09:01.982Z,66.50
2023-04-04T08:10:02.194Z,66.50
2023-04-04T08:11:01.761Z,66.71
2023-04-04T08:12:01.744Z,67.33
2023-04-04T08:13:01.800Z,66.60
2023-04-04T08:14:01.792Z,66.50
2023-04-04T08:15:01.746Z,66.39
2023-04-04T08:16:01.736Z,66.60
2023-04-04T08:17:01.676Z,65.97
2023-04-04T08:18:01.761Z,66.25
2023-04-04T08:19:01.718Z,66.57
2023-04-04T08:20:01.729Z,66.57
2023-04-04T08:21:01.629Z,66.05
2023-04-04T08:22:01.713Z,64.49
2023-04-04T08:23:01.628Z,64.21
2023-04-04T08:24:01.720Z,64.83
2023-04-04T08:25:01.587Z,65.14
2023-04-04T08:26:01.571Z,65.35
2023-04-04T08:27:05.212Z,65.97
2023-04-04T08:28:01.791Z,66.18
2023-04-04T08:29:01.529Z,66.31
2023-04-04T08:30:01.568Z,66.50
2023-04-04T08:31:01.552Z,66.91
2023-04-04T08:32:01.494Z,66.28
2023-04-04T08:33:03.325Z,65.73
2023-04-04T08:34:01.472Z,64.59
2023-04-04T08:35:01.449Z,64.28
2023-04-04T08:36:01.466Z,64.07
2023-04-04T08:37:01.446Z,63.42
2023-04-04T08:38:01.838Z,63.45
2023-04-04T08:39:01.425Z,63.73
2023-04-04T08:40:01.389Z,63.32
2023-04-04T08:41:01.367Z,63.32
2023-04-04T08:42:01.422Z,62.90
2023-04-04T08:43:01.381Z,62.49
2023-04-04T08:44:01.347Z,62.38
2023-04-04T08:45:01.355Z,62.88
2023-04-04T08:46:01.328Z,62.77
2023-04-04T08:47:01.386Z,62.67
2023-04-04T08:48:01.397Z,62.64
2023-04-04T08:49:05.351Z,62.54
2023-04-04T08:50:01.506Z,62.02
2023-04-04T08:51:01.258Z,61.60
2023-04-04T08:52:01.244Z,61.08
2023-04-04T08:53:01.218Z,61.60
2023-04-04T08:54:01.487Z,61.40
2023-04-04T08:55:01.218Z,60.46
2023-04-04T08:56:01.240Z,60.22
2023-04-04T08:57:01.177Z,60.02
2023-04-04T08:58:01.209Z,59.74
2023-04-04T08:59:01.274Z,58.49
2023-04-04T09:00:01.220Z,59.14
2023-04-04T09:01:01.188Z,59.25
2023-04-04T09:02:01.455Z,59.17
2023-04-04T09:03:01.226Z,59.38
2023-04-04T09:04:01.101Z,59.14
2023-04-04T09:05:06.108Z,59.25
2023-04-04T09:06:02.072Z,59.53
2023-04-04T09:07:01.066Z,59.50
2023-04-04T09:08:01.096Z,59.37
2023-04-04T09:09:01.044Z,58.85
2023-04-04T09:10:01.114Z,58.33
2023-04-04T09:11:01.298Z,58.85
2023-04-04T09:12:01.016Z,58.85
2023-04-04T09:13:12.371Z,58.72
2023-04-04T09:14:01.986Z,59.03
2023-04-04T09:15:00.956Z,58.59
2023-04-04T09:16:00.959Z,58.69
2023-04-04T09:17:00.995Z,58.28
2023-04-04T09:18:00.966Z,57.97
2023-04-04T09:19:00.973Z,56.73
2023-04-04T09:20:00.911Z,56.85
2023-04-04T09:21:01.036Z,57.27
2023-04-04T09:22:00.873Z,57.58
2023-04-04T09:23:00.883Z,57.14
2023-04-04T09:24:00.842Z,56.65
2023-04-04T09:25:00.850Z,56.47
2023-04-04T09:26:04.452Z,56.78
2023-04-04T09:27:00.809Z,57.09
2023-04-04T09:28:00.809Z,57.09
2023-04-04T09:29:00.783Z,57.20
2023-04-04T09:30:01.864Z,57.20
2023-04-04T09:31:00.767Z,57.53
2023-04-04T09:32:00.776Z,57.64
2023-04-04T09:33:00.770Z,57.53
2023-04-04T09:34:00.753Z,57.22
2023-04-04T09:35:00.730Z,57.12
2023-04-04T09:36:00.764Z,56.88
2023-04-04T09:37:00.782Z,56.26
2023-04-04T09:38:00.683Z,56.13
2023-04-04T09:39:00.756Z,55.93
2023-04-04T09:40:00.753Z,56.68
2023-04-04T09:41:00.628Z,57.20
2023-04-04T09:42:00.657Z,57.30
2023-04-04T09:43:00.622Z,57.37
2023-04-04T09:44:00.756Z,57.48
2023-04-04T09:45:00.581Z,57.17
2023-04-04T09:46:00.641Z,57.17
2023-04-04T09:47:00.606Z,57.04
2023-04-04T09:48:00.618Z,56.41
2023-04-04T09:49:00.524Z,56.75
2023-04-04T09:50:00.569Z,56.85
2023-04-04T09:51:00.519Z,56.85
2023-04-04T09:52:00.509Z,56.13
2023-04-04T09:53:00.483Z,55.07
2023-04-04T09:54:00.475Z,54.86
2023-04-04T09:55:00.448Z,55.07
2023-04-04T09:56:00.440Z,54.74
2023-04-04T09:57:00.436Z,54.63
2023-04-04T09:58:00.495Z,54.43
2023-04-04T09:59:04.270Z,53.52
2023-04-04T10:00:01.533Z,53.96
2023-04-04T10:01:00.377Z,54.60
2023-04-04T10:02:00.395Z,54.79
2023-04-04T10:03:00.368Z,54.79
2023-04-04T10:04:00.393Z,54.14
2023-04-04T10:06:00.316Z,54.22
2023-04-04T10:07:00.307Z,53.88
2023-04-04T10:08:00.301Z,53.99
2023-04-04T10:09:00.274Z,53.75
2023-04-04T10:10:00.288Z,53.96
2023-04-04T10:11:10.519Z,53.78
2023-04-04T10:12:01.234Z,53.88
2023-04-04T10:13:00.250Z,54.53
2023-04-04T10:14:00.215Z,55.15
2023-04-04T10:15:00.235Z,55.66
2023-04-04T10:16:00.396Z,55.69
2023-04-04T10:17:00.167Z,56.13
2023-04-04T10:18:00.217Z,55.93
2023-04-04T10:19:00.153Z,56.24
2023-04-04T10:20:00.201Z,56.21
2023-04-04T10:21:12.145Z,56.10
2023-04-04T10:22:01.115Z,56.00
2023-04-04T10:23:00.125Z,55.49
2023-04-04T10:24:00.988Z,55.25
2023-04-04T10:25:00.058Z,55.25
2023-04-04T10:26:00.089Z,55.12
2023-04-04T10:27:00.099Z,54.30
2023-04-04T10:28:00.043Z,53.96
2023-04-04T10:29:00.128Z,53.65
2023-04-04T10:30:00.034Z,53.23
2023-04-04T10:31:06.328Z,52.93
2023-04-04T10:32:01.003Z,53.13
2023-04-04T10:32:59.979Z,52.64
2023-04-04T10:33:59.958Z,52.85
2023-04-04T10:35:00.931Z,53.05
2023-04-04T10:36:00.936Z,53.34
2023-04-04T10:36:59.921Z,52.91
2023-04-04T10:37:59.913Z,52.39
2023-04-04T10:38:59.992Z,52.28
2023-04-04T10:39:59.876Z,52.15
2023-04-04T10:40:59.836Z,51.95
2023-04-04T10:41:59.900Z,51.76
2023-04-04T10:42:59.852Z,52.20
2023-04-04T10:43:59.814Z,52.93
2023-04-04T10:45:09.139Z,52.49
2023-04-04T10:46:00.819Z,51.66
2023-04-04T10:46:59.905Z,51.58
2023-04-04T10:47:59.861Z,52.64
2023-04-04T10:48:59.728Z,52.75
2023-04-04T10:49:59.767Z,52.85
2023-04-04T10:50:59.709Z,52.51
2023-04-04T10:51:59.708Z,51.89
2023-04-04T10:52:59.716Z,52.41
2023-04-04T10:53:59.692Z,52.31
2023-04-04T10:55:00.626Z,52.44
2023-04-04T10:55:59.656Z,52.23
2023-04-04T10:56:59.660Z,52.51
2023-04-04T10:57:59.662Z,51.48
2023-04-04T10:58:59.663Z,51.07
2023-04-04T10:59:59.646Z,51.15
2023-04-04T11:00:59.663Z,49.41
2023-04-04T11:01:59.671Z,49.10
2023-04-04T11:03:00.042Z,49.41
2023-04-04T11:03:59.583Z,49.52
2023-04-04T11:04:59.539Z,49.72
2023-04-04T11:05:59.541Z,49.70
2023-04-04T11:06:59.518Z,49.60
2023-04-04T11:08:59.497Z,49.93
2023-04-04T11:09:59.729Z,50.55
2023-04-04T11:11:01.559Z,50.45
2023-04-04T11:11:59.468Z,50.55
2023-04-04T11:13:11.355Z,50.52
2023-04-04T11:14:00.553Z,49.91
2023-04-04T11:14:59.433Z,49.91
2023-04-04T11:15:59.402Z,50.09
2023-04-04T11:16:59.433Z,49.68
2023-04-04T11:17:59.444Z,49.34
2023-04-04T11:18:59.387Z,47.77
2023-04-04T11:19:59.414Z,47.77
2023-04-04T11:20:59.367Z,46.82
2023-04-04T11:21:59.339Z,46.00
2023-04-04T11:22:59.358Z,45.69
2023-04-04T11:23:59.467Z,46.00
2023-04-04T11:24:59.284Z,47.46
2023-04-04T11:25:59.286Z,48.10
2023-04-04T11:26:59.252Z,48.62
2023-04-04T11:27:59.389Z,48.23
2023-04-04T11:28:59.244Z,48.54
2023-04-04T11:29:59.243Z,48.85
2023-04-04T11:30:59.714Z,48.87
2023-04-04T11:31:59.337Z,48.15
2023-04-04T11:33:07.100Z,48.77
2023-04-04T11:34:00.221Z,47.34
2023-04-04T11:34:59.158Z,47.32
2023-04-04T11:35:59.146Z,46.41
2023-04-04T11:36:59.144Z,46.93
2023-04-04T11:37:59.113Z,47.02
2023-04-04T11:38:59.107Z,46.27
2023-04-04T11:39:59.071Z,46.14
2023-04-04T11:40:59.101Z,45.73
2023-04-04T11:41:59.065Z,45.63
2023-04-04T11:42:59.055Z,45.53
2023-04-04T11:43:59.030Z,45.32
2023-04-04T11:44:59.022Z,45.44
2023-04-04T11:45:59.041Z,45.86
2023-04-04T11:46:58.991Z,45.96
2023-04-04T11:47:59.036Z,46.17
2023-04-04T11:48:59.027Z,46.14
2023-04-04T11:49:58.957Z,46.04
2023-04-04T11:50:58.933Z,45.81
2023-04-04T11:51:58.917Z,45.69
2023-04-04T11:52:58.961Z,45.25
2023-04-04T11:53:58.943Z,45.34
2023-04-04T11:54:58.887Z,44.72
2023-04-04T11:55:58.918Z,44.51
2023-04-04T11:56:58.867Z,44.53
2023-04-04T11:57:58.873Z,45.25
2023-04-04T11:59:10.697Z,44.43
2023-04-04T11:59:59.830Z,44.96
2023-04-04T12:00:58.807Z,45.07
2023-04-04T12:01:58.784Z,44.78
2023-04-04T12:02:58.913Z,45.09
2023-04-04T12:03:58.777Z,45.09
2023-04-04T12:04:58.852Z,45.29
2023-04-04T12:05:58.794Z,45.11
2023-04-04T12:06:58.727Z,45.32
2023-04-04T12:07:58.721Z,45.63
2023-04-04T12:08:58.732Z,45.21
2023-04-04T12:09:58.692Z,45.63
2023-04-04T12:10:58.682Z,45.29
2023-04-04T12:11:58.658Z,45.29
2023-04-04T12:12:58.659Z,45.40
2023-04-04T12:13:58.634Z,46.02
2023-04-04T12:15:10.315Z,45.29
2023-04-04T12:15:59.631Z,45.50
2023-04-04T12:16:58.596Z,45.61
2023-04-04T12:17:58.613Z,45.09
2023-04-04T12:18:58.706Z,45.42
2023-04-04T12:19:58.548Z,45.92
2023-04-04T12:20:58.543Z,46.53
2023-04-04T12:21:58.538Z,46.33
2023-04-04T12:22:58.528Z,46.10
2023-04-04T12:23:58.518Z,46.20
2023-04-04T12:24:58.491Z,46.08
2023-04-04T12:25:58.473Z,45.05
2023-04-04T12:26:58.533Z,44.66
2023-04-04T12:27:58.472Z,45.81
2023-04-04T12:28:58.513Z,46.14
2023-04-04T12:29:58.423Z,46.45
2023-04-04T12:30:58.425Z,46.45
2023-04-04T12:31:58.478Z,45.81
2023-04-04T12:32:58.672Z,46.02
2023-04-04T12:33:58.380Z,45.81
2023-04-04T12:34:59.090Z,46.12
2023-04-04T12:35:58.369Z,46.31
2023-04-04T12:36:58.332Z,46.00
2023-04-04T12:37:58.317Z,46.02
2023-04-04T12:38:58.335Z,46.62
2023-04-04T12:39:58.298Z,46.00
2023-04-04T12:40:58.283Z,45.77
2023-04-04T12:41:58.266Z,45.56
2023-04-04T12:42:58.258Z,45.34
2023-04-04T12:43:58.247Z,44.62
2023-04-04T12:44:58.265Z,44.82
2023-04-04T12:45:58.226Z,45.07
2023-04-04T12:46:58.376Z,46.12
2023-04-04T12:47:58.336Z,45.89
2023-04-04T12:48:58.188Z,45.69
2023-04-04T12:49:58.166Z,45.28
2023-04-04T12:50:58.170Z,44.86
2023-04-04T12:51:59.041Z,44.86
2023-04-04T12:53:13.234Z,44.35
2023-04-04T12:53:59.126Z,44.47